Time;durP1;ratioP1;P1;durP2;ratioP2;P2;SDS_P1;SDS_P2;PMS_P1;PMS_P2;Temp;Humidity;BMP_temperature;BMP_pressure;BME280_temperature;BME280_humidity;BME280_pressure;Samples;Min_cycle;Max_cycle;Signal;HPM_P1;HPM_P2
2021/09/17 00:02:25;;;;;;;12.27;10.17;;;15.30;99.90;;;;;;6207335;23;20181;-84
2021/09/17 00:04:52;;;;;;;10.80;9.30;;;15.30;99.90;;;;;;6205631;23;20177;-88
2021/09/17 00:07:19;;;;;;;13.37;11.13;;;15.30;99.90;;;;;;6205834;23;20189;-86
2021/09/17 00:09:46;;;;;;;13.73;11.23;;;15.30;99.90;;;;;;6206861;23;20454;-89
2021/09/17 00:12:15;;;;;;;14.00;12.10;;;15.30;99.90;;;;;;6208802;23;20851;-86
2021/09/17 00:14:42;;;;;;;13.83;11.33;;;15.30;99.90;;;;;;6207517;23;20872;-78
2021/09/17 00:17:09;;;;;;;14.83;12.03;;;15.30;99.90;;;;;;6207052;23;20788;-83
2021/09/17 00:19:36;;;;;;;24.90;18.57;;;15.30;99.90;;;;;;6208061;23;20265;-89
2021/09/17 00:22:03;;;;;;;22.87;16.93;;;15.40;99.90;;;;;;6206855;23;20166;-89
2021/09/17 00:24:30;;;;;;;17.43;14.23;;;15.40;99.90;;;;;;6206302;23;20170;-87
2021/09/17 00:26:57;;;;;;;16.00;14.10;;;15.40;99.90;;;;;;6208326;23;20186;-82
2021/09/17 00:29:25;;;;;;;23.40;16.73;;;15.40;99.90;;;;;;6210082;23;20180;-87
2021/09/17 00:31:52;;;;;;;21.97;17.77;;;15.40;99.90;;;;;;6209792;23;20688;-89
2021/09/17 00:34:18;;;;;;;20.37;16.37;;;15.40;99.90;;;;;;6210057;23;20181;-89
2021/09/17 00:36:45;;;;;;;16.00;14.20;;;15.50;99.90;;;;;;6210401;23;20177;-87
2021/09/17 00:39:13;;;;;;;17.47;14.47;;;15.50;99.90;;;;;;6209825;23;20171;-87
2021/09/17 00:41:40;;;;;;;17.63;13.97;;;15.50;99.90;;;;;;6210914;23;20468;-90
2021/09/17 00:44:07;;;;;;;15.75;12.90;;;15.50;99.90;;;;;;6210784;23;20178;-89
2021/09/17 00:46:36;;;;;;;16.73;13.27;;;15.60;99.90;;;;;;6210582;23;20574;-89
2021/09/17 00:49:03;;;;;;;16.47;12.63;;;15.60;99.90;;;;;;6210751;23;20221;-88
2021/09/17 00:51:30;;;;;;;13.77;12.20;;;15.50;99.90;;;;;;6209910;23;20754;-87
2021/09/17 00:53:57;;;;;;;15.98;13.15;;;15.50;99.90;;;;;;6211610;23;20177;-89
2021/09/17 00:56:24;;;;;;;21.52;16.17;;;15.60;99.90;;;;;;6209972;23;20174;-88
2021/09/17 00:58:51;;;;;;;20.77;15.25;;;15.60;99.90;;;;;;6209831;23;20178;-87
2021/09/17 01:01:17;;;;;;;18.33;14.10;;;15.60;99.90;;;;;;6209442;23;20185;-85
2021/09/17 01:03:46;;;;;;;16.80;14.20;;;15.60;99.90;;;;;;6209871;23;20178;-84
2021/09/17 01:06:12;;;;;;;19.53;15.80;;;15.60;99.90;;;;;;6209148;23;20174;-88
2021/09/17 01:08:40;;;;;;;23.02;17.35;;;15.60;99.90;;;;;;6210046;23;20180;-89
2021/09/17 01:11:08;;;;;;;22.77;17.25;;;15.60;99.90;;;;;;6209967;23;20193;-88
2021/09/17 01:13:35;;;;;;;22.70;18.20;;;15.70;99.90;;;;;;6209599;23;20177;-88
2021/09/17 01:16:02;;;;;;;23.27;18.33;;;15.70;99.90;;;;;;6210348;23;20174;-89
2021/09/17 01:18:29;;;;;;;25.33;19.50;;;15.70;99.90;;;;;;6209878;23;20178;-77
2021/09/17 01:20:59;;;;;;;30.95;23.77;;;15.70;99.90;;;;;;6208871;23;20170;-87
2021/09/17 01:23:25;;;;;;;35.17;25.93;;;15.70;99.90;;;;;;6209848;23;20198;-82
2021/09/17 01:25:53;;;;;;;33.63;26.90;;;15.80;99.90;;;;;;6210837;23;20181;-88
2021/09/17 01:28:22;;;;;;;39.77;28.03;;;15.70;99.90;;;;;;6210085;23;20205;-83
2021/09/17 01:30:49;;;;;;;35.63;25.63;;;15.70;99.90;;;;;;6210545;23;20245;-87
2021/09/17 01:33:16;;;;;;;34.87;25.63;;;15.80;99.90;;;;;;6209521;23;20558;-88
2021/09/17 01:35:43;;;;;;;28.58;21.27;;;15.80;99.90;;;;;;6210155;23;20230;-89
2021/09/17 01:38:12;;;;;;;26.40;20.13;;;15.80;99.90;;;;;;6210415;23;20182;-89
2021/09/17 01:40:39;;;;;;;27.33;21.10;;;15.80;99.90;;;;;;6209836;23;20177;-90
2021/09/17 01:43:05;;;;;;;24.45;17.75;;;15.80;99.90;;;;;;6210378;23;20173;-90
2021/09/17 01:45:33;;;;;;;31.40;23.37;;;15.80;99.90;;;;;;6210385;23;20177;-90
2021/09/17 01:48:00;;;;;;;28.90;20.50;;;15.80;99.90;;;;;;6208548;23;20213;-84
2021/09/17 01:50:26;;;;;;;25.77;19.85;;;15.80;99.90;;;;;;6208544;23;20229;-78
2021/09/17 01:52:53;;;;;;;28.67;22.50;;;15.80;99.90;;;;;;6208471;23;20178;-86
2021/09/17 01:55:23;;;;;;;26.90;20.67;;;15.80;99.90;;;;;;6205973;23;20174;-81
2021/09/17 01:57:50;;;;;;;33.03;19.70;;;15.80;99.90;;;;;;6210422;23;20178;-82
2021/09/17 02:00:17;;;;;;;20.37;16.63;;;15.80;99.90;;;;;;6210048;23;20170;-89
2021/09/17 02:02:44;;;;;;;24.20;18.87;;;15.80;99.90;;;;;;6209414;23;20174;-88
2021/09/17 02:05:11;;;;;;;27.53;20.80;;;15.90;99.90;;;;;;6209474;23;20571;-86
2021/09/17 02:07:38;;;;;;;27.30;22.40;;;15.80;99.90;;;;;;6210288;23;20189;-88
2021/09/17 02:10:07;;;;;;;28.30;20.67;;;15.80;99.90;;;;;;6208519;23;20166;-89
2021/09/17 02:12:36;;;;;;;29.27;22.23;;;15.90;99.90;;;;;;6210324;23;20201;-85
2021/09/17 02:15:03;;;;;;;28.83;21.43;;;15.80;99.90;;;;;;6209645;23;20166;-88
2021/09/17 02:17:31;;;;;;;23.57;18.43;;;15.80;99.90;;;;;;6210321;23;20185;-85
2021/09/17 02:19:58;;;;;;;19.97;16.20;;;15.80;99.90;;;;;;6209976;23;20241;-89
2021/09/17 02:22:25;;;;;;;20.67;16.50;;;15.80;99.90;;;;;;6209090;23;20170;-84
2021/09/17 02:24:52;;;;;;;19.80;15.70;;;15.90;99.90;;;;;;6209954;23;20181;-86
2021/09/17 02:27:19;;;;;;;22.65;18.63;;;15.90;99.90;;;;;;6209725;23;20456;-88
2021/09/17 02:29:47;;;;;;;20.53;17.47;;;15.90;99.90;;;;;;6209548;23;20170;-83
2021/09/17 02:32:14;;;;;;;20.40;16.97;;;15.90;99.90;;;;;;6208058;23;20190;-87
2021/09/17 02:34:41;;;;;;;19.88;15.98;;;15.90;99.90;;;;;;6208675;23;20177;-83
2021/09/17 02:37:11;;;;;;;19.50;16.13;;;15.90;99.90;;;;;;6206685;23;20181;-88
2021/09/17 02:39:38;;;;;;;35.50;27.65;;;15.90;99.90;;;;;;6206090;23;20170;-88
2021/09/17 02:42:05;;;;;;;29.90;24.83;;;15.90;99.90;;;;;;6208666;23;20178;-82
2021/09/17 02:44:33;;;;;;;39.85;28.08;;;15.90;99.90;;;;;;6205759;23;20174;-85
2021/09/17 02:47:01;;;;;;;31.10;23.67;;;15.90;99.90;;;;;;6206875;23;20177;-84
2021/09/17 02:49:30;;;;;;;29.17;21.60;;;15.90;99.90;;;;;;6207359;23;20533;-79
2021/09/17 02:51:57;;;;;;;36.53;26.40;;;15.90;99.90;;;;;;6205824;23;20514;-80
2021/09/17 02:54:23;;;;;;;34.87;26.03;;;15.90;99.90;;;;;;6206688;23;20226;-85
2021/09/17 02:56:50;;;;;;;38.95;28.33;;;15.90;99.90;;;;;;6207460;23;20178;-78
2021/09/17 02:59:17;;;;;;;38.80;26.48;;;15.90;99.90;;;;;;6206818;23;20178;-82
2021/09/17 03:01:43;;;;;;;38.10;27.13;;;15.90;99.90;;;;;;6207582;23;20181;-81
2021/09/17 03:04:12;;;;;;;36.33;26.73;;;15.90;99.90;;;;;;6205870;23;20174;-88
2021/09/17 03:06:39;;;;;;;42.90;30.77;;;15.90;99.90;;;;;;6204651;23;20178;-80
2021/09/17 03:09:05;;;;;;;44.88;31.63;;;15.90;99.90;;;;;;6206978;23;20178;-82
2021/09/17 03:11:32;;;;;;;39.75;30.35;;;16.00;99.90;;;;;;6208842;23;20198;-78
2021/09/17 03:13:59;;;;;;;38.17;27.70;;;16.00;99.90;;;;;;6210207;23;20185;-79
2021/09/17 03:16:26;;;;;;;37.47;27.63;;;16.00;99.90;;;;;;6210162;23;20174;-81
2021/09/17 03:18:52;;;;;;;52.70;35.10;;;16.00;99.90;;;;;;6208970;23;20174;-77
2021/09/17 03:21:21;;;;;;;46.58;31.58;;;16.00;99.90;;;;;;6209585;23;20180;-80
2021/09/17 03:23:47;;;;;;;37.95;29.02;;;16.00;99.90;;;;;;6209733;23;20172;-78
2021/09/17 03:26:14;;;;;;;48.07;33.33;;;16.00;99.90;;;;;;6209548;23;20198;-79
2021/09/17 03:28:43;;;;;;;40.10;30.30;;;16.00;99.90;;;;;;6210077;23;20167;-83
2021/09/17 03:31:10;;;;;;;42.83;30.43;;;16.00;99.90;;;;;;6210859;23;20501;-82
2021/09/17 03:33:36;;;;;;;57.07;37.27;;;16.00;99.90;;;;;;6209306;23;20166;-87
2021/09/17 03:36:04;;;;;;;48.58;34.40;;;16.00;99.90;;;;;;6217364;23;20178;-82
2021/09/17 03:38:32;;;;;;;46.60;31.92;;;16.00;99.90;;;;;;6222090;23;20184;-84
2021/09/17 03:40:59;;;;;;;49.47;33.63;;;16.00;99.90;;;;;;6214406;23;20441;-85
2021/09/17 03:43:25;;;;;;;48.60;35.30;;;16.00;99.90;;;;;;6216696;23;20174;-86
2021/09/17 03:45:52;;;;;;;53.10;38.00;;;16.00;99.90;;;;;;6216097;23;20185;-87
2021/09/17 03:48:19;;;;;;;49.50;33.63;;;16.00;99.90;;;;;;6211876;23;20206;-80
2021/09/17 03:50:46;;;;;;;62.85;40.00;;;16.00;99.90;;;;;;6210231;23;20170;-78
2021/09/17 03:53:12;;;;;;;54.65;37.38;;;16.00;99.90;;;;;;6209549;23;20178;-84
2021/09/17 03:55:41;;;;;;;58.90;38.43;;;16.00;99.90;;;;;;6209855;23;20182;-87
2021/09/17 03:58:07;;;;;;;49.17;33.83;;;16.10;99.90;;;;;;6210648;23;20173;-83
2021/09/17 04:00:35;;;;;;;51.50;36.92;;;16.10;99.90;;;;;;6210922;23;20173;-89
2021/09/17 04:03:03;;;;;;;59.77;40.47;;;16.00;99.90;;;;;;6209510;23;20571;-90
2021/09/17 04:05:30;;;;;;;60.90;40.57;;;16.00;99.90;;;;;;6210494;23;20166;-87
2021/09/17 04:07:57;;;;;;;70.90;43.58;;;16.00;99.90;;;;;;6209321;23;20174;-79
2021/09/17 04:10:24;;;;;;;61.67;39.47;;;16.00;99.90;;;;;;6208910;23;20174;-78
2021/09/17 04:12:52;;;;;;;59.00;38.72;;;16.10;99.90;;;;;;6208827;23;20197;-79
2021/09/17 04:15:19;;;;;;;73.60;47.37;;;16.00;99.90;;;;;;6208256;23;20178;-84
2021/09/17 04:17:46;;;;;;;65.68;41.97;;;16.10;99.90;;;;;;6208541;23;20174;-78
2021/09/17 04:20:14;;;;;;;57.57;37.97;;;16.00;99.90;;;;;;6205726;23;20208;-79
2021/09/17 04:22:41;;;;;;;63.45;43.40;;;16.10;99.90;;;;;;6205661;23;20178;-80
2021/09/17 04:25:09;;;;;;;72.85;44.53;;;16.00;99.90;;;;;;6205706;23;20205;-81
2021/09/17 04:27:36;;;;;;;56.10;38.28;;;16.10;99.90;;;;;;6204676;23;20213;-82
2021/09/17 04:30:06;;;;;;;59.30;41.30;;;16.00;99.90;;;;;;6204107;23;20180;-77
2021/09/17 04:32:33;;;;;;;80.47;50.20;;;16.00;99.90;;;;;;6203911;23;20190;-85
2021/09/17 04:35:00;;;;;;;64.77;42.97;;;16.00;99.90;;;;;;6204716;23;20182;-78
2021/09/17 04:37:27;;;;;;;75.82;48.75;;;16.00;99.90;;;;;;6202217;23;20177;-79
2021/09/17 04:39:53;;;;;;;51.40;35.92;;;16.00;99.90;;;;;;6204130;23;20170;-80
2021/09/17 04:42:20;;;;;;;68.73;43.57;;;16.00;99.90;;;;;;6203531;23;20590;-78
2021/09/17 04:44:47;;;;;;;53.13;36.00;;;16.00;99.90;;;;;;6202816;23;20889;-79
2021/09/17 04:47:15;;;;;;;52.72;34.53;;;16.00;99.90;;;;;;6203977;23;20174;-77
2021/09/17 04:49:42;;;;;;;47.95;33.28;;;16.00;99.90;;;;;;6203175;23;20418;-77
2021/09/17 04:52:09;;;;;;;54.07;36.57;;;16.00;99.90;;;;;;6203234;23;20202;-78
2021/09/17 04:54:36;;;;;;;55.53;35.20;;;16.00;99.90;;;;;;6203572;23;20174;-79
2021/09/17 04:57:04;;;;;;;50.22;33.80;;;16.00;99.90;;;;;;6204689;23;20276;-78
2021/09/17 04:59:30;;;;;;;53.57;36.13;;;16.00;99.90;;;;;;6201987;23;20637;-83
2021/09/17 05:01:57;;;;;;;66.43;44.50;;;16.00;99.90;;;;;;6204535;23;20711;-78
2021/09/17 05:04:25;;;;;;;65.90;43.17;;;16.00;99.90;;;;;;6202242;23;20174;-82
2021/09/17 05:06:53;;;;;;;82.07;50.83;;;16.00;99.90;;;;;;6204379;23;20166;-77
2021/09/17 05:09:19;;;;;;;89.87;55.00;;;16.00;99.90;;;;;;6204093;23;20186;-77
2021/09/17 05:11:46;;;;;;;68.47;47.27;;;16.00;99.90;;;;;;6203953;23;20466;-78
2021/09/17 05:14:13;;;;;;;67.87;44.30;;;16.00;99.90;;;;;;6206782;23;20182;-77
2021/09/17 05:16:40;;;;;;;87.40;54.97;;;16.00;99.90;;;;;;6205340;23;20174;-76
2021/09/17 05:19:06;;;;;;;92.22;53.97;;;16.00;99.90;;;;;;6205965;23;20442;-78
2021/09/17 05:21:34;;;;;;;66.70;43.88;;;16.00;99.90;;;;;;6204271;23;20189;-79
2021/09/17 05:24:01;;;;;;;94.47;58.67;;;16.00;99.90;;;;;;6205152;23;20178;-77
2021/09/17 05:26:28;;;;;;;78.27;50.93;;;16.00;99.90;;;;;;6204453;23;20194;-89
2021/09/17 05:28:55;;;;;;;89.57;54.22;;;16.00;99.90;;;;;;6206254;23;20213;-79
2021/09/17 05:31:22;;;;;;;92.60;57.80;;;16.00;99.90;;;;;;6205383;23;20174;-88
2021/09/17 05:33:49;;;;;;;100.07;59.43;;;16.00;99.90;;;;;;6205702;23;20172;-81
2021/09/17 05:36:16;;;;;;;92.77;56.70;;;16.00;99.90;;;;;;6206248;23;20265;-77
2021/09/17 05:38:44;;;;;;;89.20;56.47;;;16.10;99.90;;;;;;6204166;23;20180;-79
2021/09/17 05:41:11;;;;;;;94.50;57.57;;;16.10;99.90;;;;;;6205108;23;20181;-77
2021/09/17 05:43:37;;;;;;;107.93;63.23;;;16.10;99.90;;;;;;6205962;23;20177;-79
2021/09/17 05:46:04;;;;;;;101.60;57.17;;;16.10;99.90;;;;;;6205314;23;20181;-78
2021/09/17 05:48:31;;;;;;;93.33;55.63;;;16.10;99.90;;;;;;6205381;23;20213;-78
2021/09/17 05:50:58;;;;;;;102.03;60.50;;;16.10;99.90;;;;;;6207479;23;20829;-78
2021/09/17 05:53:24;;;;;;;99.30;59.65;;;16.10;99.90;;;;;;6205777;23;20190;-84
2021/09/17 05:55:52;;;;;;;111.60;62.27;;;16.10;99.90;;;;;;6207110;23;20174;-83
2021/09/17 05:58:19;;;;;;;107.00;63.43;;;16.10;99.90;;;;;;6206319;23;20173;-85
2021/09/17 06:00:46;;;;;;;89.43;53.83;;;16.10;99.90;;;;;;6206401;23;20173;-86
2021/09/17 06:03:13;;;;;;;103.97;62.30;;;16.20;99.90;;;;;;6207695;23;20197;-82
2021/09/17 06:05:40;;;;;;;107.37;61.87;;;16.20;99.90;;;;;;6207550;23;20178;-83
2021/09/17 06:08:07;;;;;;;90.53;54.83;;;16.20;99.90;;;;;;6206659;22;20173;-81
2021/09/17 06:10:34;;;;;;;98.87;58.53;;;16.20;99.90;;;;;;6206259;23;20162;-79
2021/09/17 06:13:02;;;;;;;102.50;58.63;;;16.20;99.90;;;;;;6204812;23;20190;-79
2021/09/17 06:15:29;;;;;;;89.07;54.47;;;16.20;99.90;;;;;;6205959;23;20201;-81
2021/09/17 06:17:55;;;;;;;87.60;54.07;;;16.20;99.90;;;;;;6207163;23;20485;-80
2021/09/17 06:20:23;;;;;;;92.43;55.60;;;16.20;99.90;;;;;;6204884;23;20174;-89
2021/09/17 06:22:53;;;;;;;100.23;59.37;;;16.20;99.90;;;;;;6205460;23;20220;-77
2021/09/17 06:25:21;;;;;;;90.70;55.67;;;16.20;99.90;;;;;;6205727;23;20173;-78
2021/09/17 06:27:48;;;;;;;98.43;60.27;;;16.30;99.90;;;;;;6205366;23;20226;-81
2021/09/17 06:30:18;;;;;;;99.70;59.97;;;16.30;99.90;;;;;;6201961;23;20170;-76
2021/09/17 06:32:45;;;;;;;101.50;59.47;;;16.30;99.90;;;;;;6205547;23;20201;-77
2021/09/17 06:35:13;;;;;;;98.32;58.83;;;16.30;99.90;;;;;;6204583;23;20861;-76
2021/09/17 06:37:45;;;;;;;96.03;57.07;;;16.30;99.90;;;;;;6204633;23;20173;-77
2021/09/17 06:40:13;;;;;;;96.13;56.10;;;16.30;99.90;;;;;;6204674;23;20170;-77
2021/09/17 06:42:40;;;;;;;84.97;51.87;;;16.30;99.90;;;;;;6203356;23;20170;-81
2021/09/17 06:45:08;;;;;;;84.53;52.17;;;16.30;99.90;;;;;;6203767;23;20181;-81
2021/09/17 06:47:44;;;;;;;79.80;50.33;;;16.30;99.90;;;;;;6206124;23;20181;-87
2021/09/17 06:50:11;;;;;;;85.93;51.27;;;16.40;99.90;;;;;;6208234;23;20166;-77
2021/09/17 06:52:39;;;;;;;73.85;46.17;;;16.40;99.90;;;;;;6209073;23;20194;-89
2021/09/17 06:55:06;;;;;;;99.40;58.47;;;16.40;99.90;;;;;;6208753;23;20178;-89
2021/09/17 06:57:44;;;;;;;94.40;56.27;;;16.40;99.90;;;;;;6208517;23;20589;-90
2021/09/17 07:00:11;;;;;;;94.53;53.38;;;16.40;99.90;;;;;;6207002;23;20170;-93
2021/09/17 07:02:38;;;;;;;86.73;52.03;;;16.40;99.90;;;;;;6206312;23;20181;-91
2021/09/17 07:05:07;;;;;;;80.10;48.43;;;16.50;99.90;;;;;;6209349;23;20174;-87
2021/09/17 07:07:35;;;;;;;94.50;54.63;;;16.50;99.90;;;;;;6209780;23;20178;-91
2021/09/17 07:10:01;;;;;;;85.90;52.17;;;16.50;99.90;;;;;;6209285;23;20202;-85
2021/09/17 07:12:28;;;;;;;81.57;48.37;;;16.50;99.90;;;;;;6208422;23;20201;-91
2021/09/17 07:14:55;;;;;;;90.30;53.10;;;16.50;99.90;;;;;;6210514;23;20441;-86
2021/09/17 07:17:23;;;;;;;73.65;43.80;;;16.60;99.90;;;;;;6210633;23;20184;-91
2021/09/17 07:19:50;;;;;;;91.25;53.15;;;16.60;99.90;;;;;;6210798;23;20173;-88
2021/09/17 07:23:04;;;;;;;93.60;54.92;;;16.60;99.90;;;;;;6147984;23;20245;-80
2021/09/17 07:25:33;;;;;;;85.43;51.03;;;16.70;99.90;;;;;;6210638;23;20174;-83
2021/09/17 07:28:00;;;;;;;97.82;57.22;;;16.70;99.90;;;;;;6209393;23;20204;-80
2021/09/17 07:30:27;;;;;;;106.68;59.38;;;16.80;99.90;;;;;;6207928;23;20578;-81
2021/09/17 07:32:54;;;;;;;102.90;61.97;;;16.80;99.90;;;;;;6208455;23;20197;-79
2021/09/17 07:35:21;;;;;;;92.17;54.47;;;16.90;99.90;;;;;;6208335;23;20166;-78
2021/09/17 07:37:49;;;;;;;94.67;53.03;;;17.00;99.90;;;;;;6210340;23;20206;-85
2021/09/17 07:40:17;;;;;;;103.25;54.50;;;17.10;99.90;;;;;;6203663;23;20506;-85
2021/09/17 07:42:47;;;;;;;98.45;54.88;;;17.20;99.90;;;;;;6208758;23;20175;-81
2021/09/17 07:45:15;;;;;;;104.47;58.30;;;17.30;99.90;;;;;;6208242;23;20181;-80
2021/09/17 07:47:42;;;;;;;87.53;51.45;;;17.30;99.90;;;;;;6206665;23;20179;-87
2021/09/17 07:50:11;;;;;;;107.60;61.55;;;17.40;99.90;;;;;;6207151;23;20530;-81
2021/09/17 07:52:38;;;;;;;99.85;58.92;;;17.50;99.90;;;;;;6207768;23;20715;-80
2021/09/17 07:55:05;;;;;;;98.45;57.50;;;17.50;99.90;;;;;;6206551;23;20173;-79
2021/09/17 07:57:32;;;;;;;106.63;61.35;;;17.60;99.90;;;;;;6207332;23;20740;-79
2021/09/17 08:00:00;;;;;;;86.40;53.13;;;17.60;99.90;;;;;;6206837;23;20189;-80
2021/09/17 08:02:27;;;;;;;100.65;58.50;;;17.70;99.90;;;;;;6205495;23;20204;-77
2021/09/17 08:04:54;;;;;;;85.63;52.20;;;17.80;99.90;;;;;;6205682;23;20181;-84
2021/09/17 08:07:21;;;;;;;96.03;56.58;;;18.00;99.90;;;;;;6205833;23;20174;-84
2021/09/17 08:09:47;;;;;;;83.38;50.67;;;18.10;99.90;;;;;;6205747;23;20212;-78
2021/09/17 08:12:14;;;;;;;72.28;45.90;;;18.20;99.90;;;;;;6206148;23;20182;-83
2021/09/17 08:14:41;;;;;;;71.25;44.53;;;18.40;99.90;;;;;;6205703;23;20170;-78
2021/09/17 08:17:09;;;;;;;69.60;44.00;;;18.50;99.90;;;;;;6204602;23;20170;-78
2021/09/17 08:19:36;;;;;;;63.35;41.78;;;18.50;99.90;;;;;;6206310;23;20177;-80
2021/09/17 08:22:03;;;;;;;60.50;39.35;;;18.60;99.90;;;;;;6206214;23;20638;-83
2021/09/17 08:24:30;;;;;;;70.32;42.70;;;18.70;99.90;;;;;;6206349;23;20500;-88
2021/09/17 08:26:58;;;;;;;64.43;41.83;;;18.80;99.90;;;;;;6206284;23;20194;-77
2021/09/17 08:29:25;;;;;;;69.05;44.78;;;19.00;99.90;;;;;;6203511;23;20205;-79
2021/09/17 08:31:54;;;;;;;65.43;43.67;;;19.10;99.90;;;;;;6205278;23;20234;-80
2021/09/17 08:34:22;;;;;;;59.20;39.03;;;19.20;99.90;;;;;;6205175;23;20256;-78
2021/09/17 08:36:49;;;;;;;58.30;39.13;;;19.30;99.90;;;;;;6205296;23;20167;-80
2021/09/17 08:39:16;;;;;;;56.92;40.05;;;19.40;99.90;;;;;;6206696;23;20181;-85
2021/09/17 08:41:44;;;;;;;43.58;32.63;;;19.40;99.90;;;;;;6206232;23;20234;-85
2021/09/17 08:44:11;;;;;;;54.17;37.35;;;19.50;99.90;;;;;;6205156;23;20170;-82
2021/09/17 08:46:40;;;;;;;45.80;32.25;;;19.50;99.90;;;;;;6207632;23;20174;-85
2021/09/17 08:49:08;;;;;;;49.97;34.97;;;19.50;99.90;;;;;;6207548;23;20220;-87
2021/09/17 08:51:36;;;;;;;47.80;34.40;;;19.50;99.90;;;;;;6207795;23;20174;-80
2021/09/17 08:54:05;;;;;;;56.85;38.17;;;19.50;99.90;;;;;;6208871;23;20533;-78
2021/09/17 08:56:34;;;;;;;45.05;32.33;;;19.60;99.90;;;;;;6206949;23;20678;-83
2021/09/17 08:59:01;;;;;;;42.10;31.98;;;19.70;99.90;;;;;;6208405;23;20225;-86
2021/09/17 09:01:29;;;;;;;45.70;34.45;;;19.70;99.90;;;;;;6206748;23;20170;-84
2021/09/17 09:03:59;;;;;;;51.90;37.95;;;19.80;99.90;;;;;;6206499;23;20166;-85
2021/09/17 09:06:26;;;;;;;47.50;34.05;;;19.70;99.90;;;;;;6205450;23;20174;-85
2021/09/17 09:08:55;;;;;;;39.63;30.27;;;19.60;99.90;;;;;;6206032;23;20214;-86
2021/09/17 09:11:24;;;;;;;43.65;32.75;;;19.60;99.90;;;;;;6205899;23;20235;-83
2021/09/17 09:14:02;;;;;;;41.30;31.27;;;19.60;99.90;;;;;;6207894;23;20208;-83
2021/09/17 09:16:30;;;;;;;43.88;30.95;;;19.50;99.90;;;;;;6208176;23;20173;-82
2021/09/17 09:18:57;;;;;;;48.72;35.00;;;19.50;99.90;;;;;;6207906;23;20172;-85
2021/09/17 09:21:26;;;;;;;41.22;31.75;;;19.50;99.90;;;;;;6208123;23;20868;-81
2021/09/17 09:24:10;;;;;;;39.55;30.75;;;19.50;99.90;;;;;;6209065;23;20178;-81
2021/09/17 09:26:38;;;;;;;52.65;36.80;;;19.40;99.90;;;;;;6208569;23;20606;-80
2021/09/17 09:29:06;;;;;;;48.38;35.03;;;19.40;99.90;;;;;;6209522;23;20178;-84
2021/09/17 09:31:43;;;;;;;42.67;31.85;;;19.40;99.90;;;;;;6208172;23;20519;-84
2021/09/17 09:34:11;;;;;;;39.03;30.45;;;19.30;99.90;;;;;;6208413;23;20219;-83
2021/09/17 09:36:38;;;;;;;49.95;34.50;;;19.30;99.90;;;;;;6209608;23;20178;-86
2021/09/17 09:39:05;;;;;;;45.22;33.55;;;19.30;99.90;;;;;;6209428;23;20173;-87
2021/09/17 09:41:36;;;;;;;40.95;29.83;;;19.30;99.90;;;;;;6209370;23;20652;-86
2021/09/17 09:44:05;;;;;;;41.65;32.00;;;19.30;99.90;;;;;;6209073;23;20535;-82
2021/09/17 09:46:35;;;;;;;34.80;26.58;;;19.20;99.90;;;;;;6208331;23;20178;-88
2021/09/17 09:49:08;;;;;;;39.38;29.40;;;19.20;99.90;;;;;;6209705;23;20213;-84
2021/09/17 09:51:36;;;;;;;40.08;29.88;;;19.20;99.90;;;;;;6210502;23;20181;-89
2021/09/17 09:54:04;;;;;;;41.65;32.00;;;19.20;99.90;;;;;;6208716;23;20197;-86
2021/09/17 09:56:33;;;;;;;47.05;33.05;;;19.10;99.90;;;;;;6207915;23;20178;-87
2021/09/17 09:59:03;;;;;;;48.88;36.42;;;19.10;99.90;;;;;;6209060;23;20173;-88
2021/09/17 10:01:32;;;;;;;44.63;33.08;;;19.10;99.90;;;;;;6207836;23;20499;-89
2021/09/17 10:04:01;;;;;;;34.17;29.05;;;19.10;99.90;;;;;;6208525;23;20492;-84
2021/09/17 10:06:28;;;;;;;33.03;27.42;;;19.00;99.90;;;;;;6207040;23;20181;-85
2021/09/17 10:08:55;;;;;;;24.95;21.48;;;19.00;99.90;;;;;;6209456;23;20524;-90
2021/09/17 10:11:22;;;;;;;26.25;23.23;;;19.10;99.90;;;;;;6209822;23;20768;-89
2021/09/17 10:13:52;;;;;;;25.95;22.08;;;19.10;99.90;;;;;;6209702;23;20762;-79
2021/09/17 10:16:21;;;;;;;25.98;23.20;;;19.10;99.90;;;;;;6208881;23;20563;-85
2021/09/17 10:18:48;;;;;;;22.90;19.40;;;19.20;99.90;;;;;;6209995;23;20173;-93
2021/09/17 10:21:47;;;;;;;23.50;21.10;;;19.30;99.90;;;;;;6209580;23;20537;-89
2021/09/17 10:24:30;;;;;;;24.35;21.73;;;19.30;99.90;;;;;;6210724;23;20177;-91
2021/09/17 10:26:57;;;;;;;24.08;19.48;;;19.30;99.90;;;;;;6210838;23;20201;-89
2021/09/17 10:29:33;;;;;;;24.02;20.65;;;19.30;99.90;;;;;;6209690;23;20691;-86
2021/09/17 10:32:01;;;;;;;23.75;21.25;;;19.40;99.90;;;;;;6210790;23;20166;-85
2021/09/17 10:34:33;;;;;;;22.00;18.75;;;19.40;99.90;;;;;;6210583;23;20201;-91
2021/09/17 10:37:00;;;;;;;22.05;19.52;;;19.50;99.90;;;;;;6210382;23;20170;-89
2021/09/17 10:39:27;;;;;;;20.65;17.40;;;19.60;99.90;;;;;;6211261;23;20200;-85
2021/09/17 10:42:10;;;;;;;16.83;15.20;;;19.80;99.90;;;;;;6211242;23;20178;-92
2021/09/17 10:45:19;;;;;;;17.48;15.70;;;19.90;99.90;;;;;;6210752;23;20162;-87
2021/09/17 10:48:01;;;;;;;24.25;15.77;;;20.00;99.90;;;;;;6167983;23;20255;-89
2021/09/17 10:50:46;;;;;;;15.88;14.07;;;20.10;99.90;;;;;;6205873;23;20174;-94
2021/09/17 10:53:14;;;;;;;15.35;13.43;;;20.20;99.90;;;;;;6205189;23;20168;-89
2021/09/17 10:56:02;;;;;;;13.63;12.30;;;20.20;99.90;;;;;;6210982;23;20170;-93
2021/09/17 10:58:30;;;;;;;16.35;13.93;;;20.30;99.90;;;;;;6210309;23;20699;-88
2021/09/17 11:01:01;;;;;;;16.83;15.00;;;20.30;99.90;;;;;;6209273;23;20438;-81
2021/09/17 11:03:56;;;;;;;19.08;15.68;;;20.30;99.90;;;;;;6203383;23;20197;-82
2021/09/17 11:06:28;;;;;;;13.95;12.55;;;20.30;99.90;;;;;;6204381;23;20166;-80
2021/09/17 11:09:00;;;;;;;14.02;12.52;;;20.20;99.90;;;;;;6206105;23;20245;-83
2021/09/17 11:11:28;;;;;;;15.48;12.05;;;20.20;99.90;;;;;;6205893;23;20167;-82
2021/09/17 11:13:57;;;;;;;16.75;14.63;;;20.30;99.90;;;;;;6207403;23;20194;-82
2021/09/17 11:16:26;;;;;;;16.23;12.88;;;20.30;99.90;;;;;;6205093;23;20541;-83
2021/09/17 11:18:55;;;;;;;18.35;15.55;;;20.30;99.90;;;;;;6206531;23;20193;-79
2021/09/17 11:21:23;;;;;;;15.30;13.73;;;20.30;99.90;;;;;;6207226;23;20181;-83
2021/09/17 11:23:51;;;;;;;14.38;13.07;;;20.30;99.90;;;;;;6207058;23;20757;-89
2021/09/17 11:26:23;;;;;;;14.13;11.68;;;20.30;99.90;;;;;;6206767;23;20194;-87
2021/09/17 11:29:04;;;;;;;12.77;9.48;;;20.20;99.90;;;;;;6208205;23;20185;-86
2021/09/17 11:31:35;;;;;;;12.02;9.05;;;20.30;99.90;;;;;;6207472;23;20272;-87
2021/09/17 11:34:03;;;;;;;10.13;8.50;;;20.30;99.90;;;;;;6207470;23;20264;-85
2021/09/17 11:36:39;;;;;;;8.20;6.70;;;20.40;99.90;;;;;;6205879;23;20193;-87
2021/09/17 11:39:14;;;;;;;8.68;6.10;;;20.50;99.90;;;;;;6206753;23;20193;-86
2021/09/17 11:41:43;;;;;;;10.15;6.70;;;20.60;99.90;;;;;;6208118;23;20628;-85
2021/09/17 11:44:10;;;;;;;6.75;5.10;;;20.80;99.90;;;;;;6207940;23;20170;-80
2021/09/17 11:46:38;;;;;;;7.90;5.13;;;20.90;99.90;;;;;;6205489;23;20178;-92
2021/09/17 11:49:05;;;;;;;4.35;3.75;;;21.00;99.90;;;;;;6206532;23;20177;-82
2021/09/17 11:51:32;;;;;;;9.27;4.93;;;20.80;99.90;;;;;;6206732;23;20174;-83
2021/09/17 11:53:58;;;;;;;7.28;4.40;;;20.80;99.90;;;;;;6204761;23;20201;-78
2021/09/17 11:56:25;;;;;;;4.00;3.60;;;20.70;99.90;;;;;;6205643;23;20178;-80
2021/09/17 11:58:52;;;;;;;6.43;4.28;;;20.80;99.90;;;;;;6205441;23;20178;-78
2021/09/17 12:01:24;;;;;;;6.95;4.18;;;20.90;99.90;;;;;;6203811;23;20181;-79
2021/09/17 12:03:54;;;;;;;6.75;3.72;;;21.00;99.90;;;;;;6204878;23;20167;-80
2021/09/17 12:06:22;;;;;;;5.32;3.22;;;21.20;99.90;;;;;;6204568;23;20174;-83
2021/09/17 12:08:48;;;;;;;5.30;2.95;;;21.40;99.90;;;;;;6205142;23;20194;-83
2021/09/17 12:11:19;;;;;;;3.45;2.55;;;21.30;99.90;;;;;;6204702;23;20162;-88
2021/09/17 12:13:54;;;;;;;4.10;3.05;;;21.20;99.90;;;;;;6206204;23;20193;-83
2021/09/17 12:16:22;;;;;;;5.55;3.25;;;21.20;99.90;;;;;;6206954;23;20166;-81
2021/09/17 12:19:02;;;;;;;5.90;2.92;;;21.10;99.90;;;;;;6208425;23;20185;-83
2021/09/17 12:21:29;;;;;;;6.35;3.80;;;21.00;99.90;;;;;;6208822;23;20166;-86
2021/09/17 12:23:56;;;;;;;5.45;3.30;;;20.90;99.90;;;;;;6206850;23;20174;-79
2021/09/17 12:26:23;;;;;;;7.57;3.05;;;20.90;99.90;;;;;;6204142;23;20198;-78
2021/09/17 12:28:52;;;;;;;4.03;2.80;;;20.90;99.90;;;;;;6203893;23;20173;-80
2021/09/17 12:31:30;;;;;;;3.50;2.65;;;20.80;99.90;;;;;;6205266;23;20181;-84
2021/09/17 12:34:07;;;;;;;2.72;2.25;;;20.80;99.90;;;;;;6205465;22;20210;-77
2021/09/17 12:36:34;;;;;;;5.65;2.67;;;20.80;99.90;;;;;;6204066;23;20166;-79